Flight Track Log - Related Links

Times and Time Zones

All times are in EST time to prevent confusion due to time zone crossing. See the QXE227 flight status page for this flight to view local times or setup timezone preferences in your user account.


Time Position Orientation Groundspeed Altitude Reporting Facility
EST Latitude Longitude Course Direction KTS MPH feet Rate Location/Type
Fri 09:06:47 AM 49.1667 -123.2167 161° South 120 138 2,200  Level Vancouver Center
Fri 09:07:47 AM 49.1500 -123.2667 243° Southwest 170 196 4,500 2,250 Climbing Vancouver Center
Fri 09:08:47 AM 49.0833 -123.2333 162° South 240 276 6,700 2,050 Climbing Vancouver Center
Fri 09:09:47 AM 49.0333 -123.2167 168° South 270 311 8,600 2,000 Climbing Vancouver Center
Fri 09:10:47 AM 48.9500 -123.1667 158° South 300 345 10,700 1,900 Climbing Vancouver Center
Fri 09:11:47 AM 48.8667 -123.1333 165° South 310 357 12,400 1,750 Climbing Vancouver Center
Fri 09:12:00 AM 48.8073 -122.9855 161° South  Level Estimated
Fri 09:12:47 AM 48.7833 -123.1167 172° South 330 380 14,200  Level Vancouver Center
Fri 09:14:42 AM 48.6211 -123.0558 166° South 350 403 15,000 273 Climbing Seattle Center
Fri 09:15:43 AM 48.5200 -123.0192 166° South 366 421 15,000  Level Seattle Center
Fri 09:16:43 AM 48.4194 -122.9828 166° South 372 428 15,000  Level Seattle Center
Fri 09:17:44 AM 48.3178 -122.9478 167° South 377 434 15,000  Level Seattle Center
Fri 09:18:29 AM 48.2250 -122.9153 167° South 372 428 15,000  Level Seattle Center
Fri 09:18:44 AM 48.2156 -122.9136 173° South 375 432 15,000  Level Seattle Center
Fri 09:18:48 AM 48.1939 -122.9058 167° South 373 429 15,000  Level Seattle Center
Fri 09:19:45 AM 48.1150 -122.8772 166° South 374 430 15,000  Level Seattle Center
Fri 09:19:48 AM 48.0936 -122.8678 164° South 374 430 15,000 -1,448 Level Seattle Center
Fri 09:20:43 AM 48.0133 -122.8025 151° Southeast 364 419 13,600 -1,474 Descending Seattle Center
Fri 09:20:45 AM 48.0108 -122.7992 138° Southeast 363 418 13,600 -1,800 Level Seattle Center
Fri 09:21:43 AM 47.9583 -122.6872 125° Southeast 339 390 11,800 -1,869 Descending Seattle Center
Fri 09:21:46 AM 47.9550 -122.6822 135° Southeast 345 397 11,700 -1,770 Descending Seattle Center
Fri 09:22:44 AM 47.9006 -122.5803 129° Southeast 333 383 10,000 -1,700 Descending Seattle Center
Fri 09:22:46 AM 47.8967 -122.5744 135° Southeast 331 381 10,000 -1,279 Level Seattle Center
Fri 09:23:45 AM 47.8439 -122.4861 132° Southeast 295 339 8,700 -1,279 Descending Seattle Center
Fri 09:23:47 AM 47.8403 -122.4794 129° Southeast 304 350 8,700 -774 Level Seattle Center
Fri 09:24:47 AM 47.7850 -122.4136 141° Southeast 244 281 7,900 -844 Descending Seattle Center
Fri 09:24:51 AM 47.7808 -122.4119 165° South 215 247 7,800 -1,200 Descending Seattle Center
Fri 09:25:52 AM 47.7306 -122.3708 151° Southeast 212 244 6,600 -1,128 Descending Seattle Center
Fri 09:26:48 AM 47.6847 -122.3394 155° Southeast 200 230 5,600 -1,082 Descending Seattle Center
Fri 09:26:53 AM 47.6822 -122.3381 159° South 192 221 5,500 -1,292 Descending Seattle Center
Fri 09:27:53 AM 47.6328 -122.3094 159° South 193 222 4,200 -1,345 Descending Seattle Center
Fri 09:28:49 AM 47.5814 -122.3106 181° South 208 239 2,900 -1,475 Descending Seattle Center
Fri 09:28:54 AM 47.5756 -122.3117 187° South 205 236 2,700 -1,091 Descending Seattle Center
Fri 09:29:55 AM 47.5222 -122.3117 180° South 195 224 1,700 -879 Descending Seattle Center
Fri 09:30:50 AM 47.4875 -122.3103 178° South 141 162 1,000 -818 Descending Seattle Center
Fri 09:31:01 AM 47.4800 -122.3119 189° South 118 136 800 -590 Descending Seattle Center
Fri 09:31:51 AM 47.4558 -122.3122 180° South 125 144 400 -480 Descending Seattle Center
Fri 09:33:00 AM 47.4499 -122.3118 177° South  Level Estimated

Login

Don't have an account? Register now (free) for customized features, flight alerts, and more!